Terminal Aerodrome Forecast
Issued by NWS Central Illinois

Home | Current Version | Previous Version | Text Only | Print | Product List | Glossary On
Versions: 1 2 3 4 5 6 7 8 9 10 11 12 13 14 15 16 17 18 19 20 21 22 23 24 25
523
FTUS43 KILX 201139
TAFSPI
TAF
KSPI 201139Z 2012/2112 20013G20KT P6SM SCT250
     FM201700 20017G26KT P6SM SCT250
     FM210000 19016G24KT P6SM SCT200
     FM210600 21013KT P6SM BKN200 WS015/23045KT=

USA.gov is the U.S. government's official web portal to all federal, state and local government web resources and services.